createdAt,value
2018-05-06T00:00:44.482Z,9.37
2018-05-06T00:03:11.957Z,10.57
2018-05-06T00:05:40.213Z,9.07
2018-05-06T00:08:07.706Z,9.00
2018-05-06T00:10:35.239Z,7.40
2018-05-06T00:13:03.498Z,8.80
2018-05-06T00:15:31.004Z,8.60
2018-05-06T00:17:58.530Z,10.30
2018-05-06T00:20:26.799Z,9.73
2018-05-06T00:22:54.294Z,9.17
2018-05-06T00:25:21.803Z,8.47
2018-05-06T00:27:49.291Z,8.90
2018-05-06T00:30:17.573Z,9.13
2018-05-06T00:32:45.826Z,9.53
2018-05-06T00:35:13.324Z,9.13
2018-05-06T00:37:40.818Z,8.17
2018-05-06T00:40:08.319Z,9.77
2018-05-06T00:42:36.569Z,8.20
2018-05-06T00:45:04.054Z,8.47
2018-05-06T00:47:32.331Z,8.10
2018-05-06T00:49:59.903Z,8.83
2018-05-06T00:52:27.402Z,8.10
2018-05-06T00:54:54.907Z,6.90
2018-05-06T00:57:23.149Z,7.67
2018-05-06T00:59:50.668Z,8.07
2018-05-06T01:02:18.174Z,8.13
2018-05-06T01:04:45.657Z,7.27
2018-05-06T01:07:13.922Z,7.73
2018-05-06T01:09:42.207Z,7.47
2018-05-06T01:12:10.457Z,8.00
2018-05-06T01:14:37.938Z,7.53
2018-05-06T01:17:05.443Z,8.13
2018-05-06T01:19:32.956Z,7.77
2018-05-06T01:22:01.221Z,6.80
2018-05-06T01:24:28.731Z,9.40
2018-05-06T01:26:56.220Z,8.73
2018-05-06T01:29:23.713Z,6.97
2018-05-06T01:31:51.987Z,7.77
2018-05-06T01:34:20.252Z,7.67
2018-05-06T01:36:47.755Z,7.30
2018-05-06T01:39:15.266Z,8.10
2018-05-06T01:41:42.754Z,7.90
2018-05-06T01:44:11.025Z,7.33
2018-05-06T01:46:39.297Z,7.77
2018-05-06T01:49:07.559Z,8.13
2018-05-06T01:51:35.042Z,8.73
2018-05-06T01:54:02.562Z,7.17
2018-05-06T01:56:30.046Z,8.13
2018-05-06T01:58:58.302Z,7.87
2018-05-06T02:01:25.806Z,8.93
2018-05-06T02:03:53.295Z,8.87
2018-05-06T02:06:20.802Z,10.47
2018-05-06T02:08:49.089Z,7.80
2018-05-06T02:11:16.579Z,7.97
2018-05-06T02:13:44.070Z,9.73
2018-05-06T02:16:11.582Z,8.17
2018-05-06T02:18:39.070Z,8.20
2018-05-06T02:21:06.561Z,8.23
2018-05-06T02:23:34.877Z,8.33
2018-05-06T02:26:02.364Z,9.53
2018-05-06T02:28:29.851Z,9.57
2018-05-06T02:30:57.364Z,8.97
2018-05-06T02:33:24.846Z,9.00
2018-05-06T02:35:52.340Z,10.07
2018-05-06T02:38:20.637Z,8.70
2018-05-06T02:40:48.120Z,9.73
2018-05-06T02:43:15.602Z,8.57
2018-05-06T02:45:43.123Z,9.00
2018-05-06T02:48:10.626Z,8.27
2018-05-06T02:50:38.106Z,8.53
2018-05-06T02:53:05.636Z,9.30
2018-05-06T02:55:33.122Z,11.10
2018-05-06T02:58:01.376Z,9.50
2018-05-06T03:00:28.914Z,9.50
2018-05-06T03:02:56.426Z,10.87
2018-05-06T03:05:24.661Z,10.43
2018-05-06T03:07:52.224Z,10.77
2018-05-06T03:10:19.716Z,9.70
2018-05-06T03:12:47.967Z,9.13
2018-05-06T03:15:15.472Z,11.47
2018-05-06T03:17:42.989Z,9.10
2018-05-06T03:20:10.478Z,9.97
2018-05-06T03:22:37.984Z,9.67
2018-05-06T03:25:05.488Z,13.17
2018-05-06T03:27:33.742Z,10.00
2018-05-06T03:30:02.055Z,9.23
2018-05-06T03:32:29.555Z,10.30
2018-05-06T03:34:57.056Z,10.53
2018-05-06T03:37:25.330Z,9.33
2018-05-06T03:39:53.590Z,10.83
2018-05-06T03:42:21.078Z,10.67
2018-05-06T03:44:48.582Z,10.63
2018-05-06T03:47:16.070Z,10.40
2018-05-06T03:49:44.324Z,9.83
2018-05-06T03:52:11.854Z,9.37
2018-05-06T03:54:39.336Z,10.53
2018-05-06T03:57:18.831Z,10.90
2018-05-06T03:59:58.063Z,10.20
2018-05-06T04:02:39.048Z,10.33
2018-05-06T04:05:06.537Z,10.23
2018-05-06T04:07:34.039Z,10.73
2018-05-06T04:10:02.318Z,10.43
2018-05-06T04:12:30.835Z,11.70
2018-05-06T04:14:58.326Z,10.93
2018-05-06T04:17:25.850Z,11.37
2018-05-06T04:19:53.324Z,10.60
2018-05-06T04:22:20.813Z,11.90
2018-05-06T04:24:48.318Z,10.90
2018-05-06T04:27:15.805Z,13.13
2018-05-06T04:29:43.299Z,13.87
2018-05-06T04:32:11.576Z,11.33
2018-05-06T04:34:39.836Z,12.57
2018-05-06T04:37:07.332Z,11.03
2018-05-06T04:39:34.847Z,11.77
2018-05-06T04:42:05.356Z,11.13
2018-05-06T04:44:32.833Z,10.83
2018-05-06T04:47:00.347Z,10.73
2018-05-06T04:49:27.834Z,11.70
2018-05-06T04:51:55.318Z,12.23
2018-05-06T04:54:22.832Z,12.57
2018-05-06T04:56:50.324Z,10.63
2018-05-06T04:59:17.830Z,12.43
2018-05-06T05:01:45.344Z,12.13
2018-05-06T05:04:13.086Z,11.20
2018-05-06T05:06:40.578Z,11.53
2018-05-06T05:09:08.098Z,10.90
2018-05-06T05:11:35.596Z,12.00
2018-05-06T05:14:03.174Z,12.93
2018-05-06T05:16:31.456Z,12.03
2018-05-06T05:18:59.701Z,12.57
2018-05-06T05:21:27.197Z,12.00
2018-05-06T05:23:54.701Z,10.93
2018-05-06T05:26:22.200Z,12.47
2018-05-06T05:28:50.442Z,10.67
2018-05-06T05:31:17.951Z,12.47
2018-05-06T05:33:45.442Z,10.87
2018-05-06T05:36:12.932Z,12.50
2018-05-06T05:38:40.463Z,11.77
2018-05-06T05:41:07.963Z,12.10
2018-05-06T05:43:36.210Z,10.57
2018-05-06T05:46:03.723Z,9.60
2018-05-06T05:48:31.220Z,10.83
2018-05-06T05:50:58.702Z,11.03
2018-05-06T05:53:26.203Z,9.97
2018-05-06T05:55:53.685Z,9.50
2018-05-06T05:58:21.165Z,10.10
2018-05-06T06:00:48.682Z,8.03
2018-05-06T06:03:16.167Z,9.23
2018-05-06T06:05:43.657Z,8.90
2018-05-06T06:08:11.942Z,9.43
2018-05-06T06:10:40.203Z,10.10
2018-05-06T06:13:07.690Z,9.73
2018-05-06T06:15:35.986Z,8.37
2018-05-06T06:18:03.478Z,10.00
2018-05-06T06:20:32.002Z,7.77
2018-05-06T06:23:00.283Z,8.53
2018-05-06T06:25:28.534Z,7.00
2018-05-06T06:27:56.017Z,8.63
2018-05-06T06:30:24.316Z,7.87
2018-05-06T06:32:51.890Z,7.57
2018-05-06T06:35:19.302Z,8.67
2018-05-06T06:37:46.861Z,7.90
2018-05-06T06:40:15.156Z,7.63
2018-05-06T06:42:42.638Z,7.40
2018-05-06T06:45:10.166Z,6.47
2018-05-06T06:47:38.448Z,7.03
2018-05-06T06:50:05.975Z,6.40
2018-05-06T06:52:33.485Z,6.93
2018-05-06T06:55:00.992Z,6.70
2018-05-06T06:57:28.498Z,7.90
2018-05-06T06:59:56.014Z,7.40
2018-05-06T07:02:23.520Z,7.70
2018-05-06T07:04:51.008Z,7.03
2018-05-06T07:07:18.523Z,5.80
2018-05-06T07:09:46.007Z,6.13
2018-05-06T07:12:13.501Z,6.47
2018-05-06T07:14:41.017Z,6.30
2018-05-06T07:17:08.500Z,6.33
2018-05-06T07:19:35.990Z,8.20
2018-05-06T07:22:04.268Z,4.93
2018-05-06T07:24:32.511Z,6.37
2018-05-06T07:26:59.990Z,4.90
2018-05-06T07:29:27.493Z,6.33
2018-05-06T07:31:54.986Z,6.07
2018-05-06T07:34:22.474Z,6.20
2018-05-06T07:36:50.746Z,6.13
2018-05-06T07:39:18.225Z,6.70
2018-05-06T07:41:46.478Z,5.23
2018-05-06T07:44:13.993Z,6.60
2018-05-06T07:46:41.482Z,4.67
2018-05-06T07:49:08.990Z,4.33
2018-05-06T07:51:37.241Z,4.13
2018-05-06T07:54:05.486Z,4.73
2018-05-06T07:56:32.979Z,3.27
2018-05-06T07:59:01.242Z,5.20
2018-05-06T08:01:29.510Z,4.90
2018-05-06T08:03:56.994Z,3.50
2018-05-06T08:06:25.265Z,5.07
2018-05-06T08:08:53.521Z,4.97
2018-05-06T08:11:21.010Z,4.07
2018-05-06T08:13:48.519Z,5.80
2018-05-06T08:16:16.014Z,4.33
2018-05-06T08:18:44.261Z,4.33
2018-05-06T08:21:11.770Z,5.00
2018-05-06T08:23:39.279Z,4.53
2018-05-06T08:26:06.754Z,5.00
2018-05-06T08:28:34.271Z,4.00
2018-05-06T08:31:01.807Z,5.10
2018-05-06T08:33:30.038Z,3.70
2018-05-06T08:35:57.551Z,5.47
2018-05-06T08:38:25.046Z,5.43
2018-05-06T08:40:52.522Z,3.60
2018-05-06T08:43:20.071Z,3.80
2018-05-06T08:45:47.696Z,5.00
2018-05-06T08:48:15.133Z,4.17
2018-05-06T08:50:42.646Z,4.90
2018-05-06T08:53:10.185Z,4.23
2018-05-06T08:55:37.676Z,4.83
2018-05-06T08:58:05.971Z,4.57
2018-05-06T09:00:33.459Z,3.33
2018-05-06T09:03:00.947Z,4.37
2018-05-06T09:05:28.446Z,4.60
2018-05-06T09:07:56.716Z,4.57
2018-05-06T09:10:24.963Z,4.07
2018-05-06T09:12:52.462Z,4.70
2018-05-06T09:15:19.958Z,3.73
2018-05-06T09:17:47.439Z,4.10
2018-05-06T09:20:14.946Z,3.47
2018-05-06T09:22:42.442Z,3.83
2018-05-06T09:25:09.946Z,3.70
2018-05-06T09:27:38.224Z,4.80
2018-05-06T09:30:06.515Z,4.20
2018-05-06T09:32:34.016Z,3.60
2018-05-06T09:35:01.534Z,3.90
2018-05-06T09:37:29.079Z,3.40
2018-05-06T09:39:56.576Z,3.33
2018-05-06T09:42:24.095Z,4.17
2018-05-06T09:44:52.355Z,6.47
2018-05-06T09:47:19.834Z,3.33
2018-05-06T09:49:47.363Z,3.73
2018-05-06T09:52:14.851Z,5.00
2018-05-06T09:54:43.123Z,3.30
2018-05-06T09:57:11.407Z,3.67
2018-05-06T09:59:39.658Z,4.10
2018-05-06T10:02:07.238Z,3.10
2018-05-06T10:04:35.518Z,4.20
2018-05-06T10:07:03.792Z,4.40
2018-05-06T10:09:32.131Z,3.47
2018-05-06T10:11:59.726Z,2.70
2018-05-06T10:14:28.004Z,7.20
2018-05-06T10:16:56.287Z,35.00
2018-05-06T10:19:24.578Z,34.80
2018-05-06T10:21:52.094Z,4.00
2018-05-06T10:24:19.666Z,19.23
2018-05-06T10:26:47.934Z,6.70
2018-05-06T10:29:15.510Z,8.20
2018-05-06T10:31:43.770Z,4.70
2018-05-06T10:34:11.274Z,6.33
2018-05-06T10:36:38.749Z,6.23
2018-05-06T10:39:06.244Z,12.73
2018-05-06T10:41:33.757Z,12.93
2018-05-06T10:44:01.306Z,10.53
2018-05-06T10:46:28.814Z,5.80
2018-05-06T10:48:56.331Z,8.13
2018-05-06T10:51:23.823Z,8.40
2018-05-06T10:53:51.321Z,4.37
2018-05-06T10:56:19.585Z,6.97
2018-05-06T10:58:47.834Z,6.30
2018-05-06T11:01:15.317Z,7.77
2018-05-06T11:03:43.602Z,3.00
2018-05-06T11:06:11.859Z,3.80
2018-05-06T11:08:39.357Z,4.93
2018-05-06T11:11:06.879Z,4.23
2018-05-06T11:13:34.357Z,4.87
2018-05-06T11:16:02.614Z,3.30
2018-05-06T11:18:30.123Z,2.80
2018-05-06T11:20:57.607Z,2.47
2018-05-06T11:23:25.165Z,4.27
2018-05-06T11:25:52.679Z,3.57
2018-05-06T11:28:20.154Z,4.43
2018-05-06T11:30:47.641Z,2.37
2018-05-06T11:33:15.146Z,3.40
2018-05-06T11:35:43.408Z,3.10
2018-05-06T11:38:10.911Z,2.63
2018-05-06T11:40:38.445Z,3.20
2018-05-06T11:43:05.923Z,3.40
2018-05-06T11:45:33.424Z,2.67
2018-05-06T11:48:00.979Z,2.07
2018-05-06T11:50:28.463Z,2.70
2018-05-06T11:52:56.713Z,3.23
2018-05-06T11:55:24.219Z,3.10
2018-05-06T11:57:51.724Z,2.80
2018-05-06T12:00:19.220Z,3.90
2018-05-06T12:02:47.529Z,3.80
2018-05-06T12:05:15.064Z,2.17
2018-05-06T12:07:42.623Z,3.40
2018-05-06T12:10:10.994Z,2.87
2018-05-06T12:12:39.242Z,2.67
2018-05-06T12:15:06.730Z,2.10
2018-05-06T12:17:35.003Z,3.37
2018-05-06T12:20:03.291Z,2.37
2018-05-06T12:22:31.554Z,3.73
2018-05-06T12:25:00.035Z,3.50
2018-05-06T12:27:28.295Z,3.07
2018-05-06T12:29:56.168Z,3.07
2018-05-06T12:32:23.688Z,2.70
2018-05-06T12:34:51.191Z,2.87
2018-05-06T12:37:19.443Z,2.03
2018-05-06T12:39:47.181Z,3.13
2018-05-06T12:42:14.672Z,4.87
2018-05-06T12:44:42.180Z,3.17
2018-05-06T12:47:09.707Z,3.80
2018-05-06T12:49:37.204Z,3.77
2018-05-06T12:52:04.697Z,2.27
2018-05-06T12:54:32.212Z,1.77
2018-05-06T12:56:59.750Z,2.20
2018-05-06T12:59:28.039Z,2.00
2018-05-06T13:01:56.411Z,2.43
2018-05-06T13:04:24.679Z,1.70
2018-05-06T13:06:53.546Z,2.00
2018-05-06T13:09:21.139Z,2.07
2018-05-06T13:11:49.398Z,1.63
2018-05-06T13:14:16.874Z,1.77
2018-05-06T13:16:45.141Z,2.53
2018-05-06T13:19:13.435Z,3.63
2018-05-06T13:21:41.706Z,2.63
2018-05-06T13:24:10.032Z,2.30
2018-05-06T13:26:37.510Z,2.17
2018-05-06T13:29:04.995Z,2.07
2018-05-06T13:31:33.314Z,1.97
2018-05-06T13:34:00.792Z,2.43
2018-05-06T13:36:28.271Z,1.40
2018-05-06T13:38:56.940Z,1.80
2018-05-06T13:41:24.421Z,1.97
2018-05-06T13:43:51.946Z,2.57
2018-05-06T13:46:19.480Z,2.57
2018-05-06T13:48:46.994Z,2.03
2018-05-06T13:51:14.569Z,3.20
2018-05-06T13:53:42.834Z,2.07
2018-05-06T13:56:10.528Z,2.30
2018-05-06T13:58:38.012Z,1.60
2018-05-06T14:01:05.576Z,2.90
2018-05-06T14:03:33.074Z,3.07
2018-05-06T14:06:00.564Z,2.70
2018-05-06T14:08:28.115Z,2.30
2018-05-06T14:10:56.359Z,3.03
2018-05-06T14:13:23.845Z,4.73
2018-05-06T14:15:52.224Z,3.60
2018-05-06T14:18:19.654Z,3.93
2018-05-06T14:20:47.142Z,2.80
2018-05-06T14:23:14.669Z,1.80
2018-05-06T14:25:42.163Z,2.57
2018-05-06T14:28:09.652Z,3.87
2018-05-06T14:30:37.158Z,2.93
2018-05-06T14:33:05.414Z,2.03
2018-05-06T14:35:32.897Z,1.87
2018-05-06T14:38:01.187Z,2.27
2018-05-06T14:40:29.446Z,2.30
2018-05-06T14:42:57.710Z,1.90
2018-05-06T14:45:25.239Z,3.53
2018-05-06T14:48:04.705Z,4.70
2018-05-06T14:50:32.218Z,2.87
2018-05-06T14:52:59.718Z,2.13
2018-05-06T14:55:27.203Z,3.63
2018-05-06T14:57:55.483Z,5.87
2018-05-06T15:00:23.732Z,1.97
2018-05-06T15:02:51.223Z,2.27
2018-05-06T15:05:19.499Z,2.80
2018-05-06T15:07:47.747Z,5.23
2018-05-06T15:10:15.235Z,4.13
2018-05-06T15:12:43.508Z,2.60
2018-05-06T15:15:11.754Z,2.73
2018-05-06T15:17:40.018Z,4.50
2018-05-06T15:20:07.552Z,3.63
2018-05-06T15:22:35.039Z,2.70
2018-05-06T15:25:02.526Z,2.40
2018-05-06T15:27:30.802Z,6.73
2018-05-06T15:29:59.061Z,3.10
2018-05-06T15:32:26.593Z,5.50
2018-05-06T15:34:54.101Z,8.40
2018-05-06T15:37:22.445Z,6.07
2018-05-06T15:39:49.911Z,2.43
2018-05-06T15:42:17.431Z,2.30
2018-05-06T15:44:44.930Z,5.10
2018-05-06T15:47:12.427Z,3.20
2018-05-06T15:49:39.945Z,4.60
2018-05-06T15:52:07.450Z,2.63
2018-05-06T15:54:34.929Z,2.20
2018-05-06T15:57:02.474Z,3.23
2018-05-06T15:59:30.014Z,4.73
2018-05-06T16:05:23.662Z,5.03
2018-05-06T16:07:51.173Z,4.53
2018-05-06T16:10:22.026Z,4.23
2018-05-06T16:12:49.779Z,5.23
2018-05-06T16:15:17.301Z,7.60
2018-05-06T16:17:45.673Z,4.63
2018-05-06T16:20:13.127Z,4.87
2018-05-06T16:22:40.736Z,7.03
2018-05-06T16:25:08.292Z,5.23
2018-05-06T16:27:39.263Z,9.77
2018-05-06T16:30:06.790Z,11.47
2018-05-06T16:32:34.843Z,7.93
2018-05-06T16:35:03.165Z,7.63
2018-05-06T16:37:30.741Z,3.47
2018-05-06T16:39:58.260Z,2.80
2018-05-06T16:42:25.769Z,3.30
2018-05-06T16:44:53.291Z,4.57
2018-05-06T16:47:20.802Z,3.70
2018-05-06T16:49:49.135Z,4.47
2018-05-06T16:52:16.974Z,3.20
2018-05-06T16:54:44.461Z,2.53
2018-05-06T16:57:11.996Z,4.40
2018-05-06T16:59:39.890Z,3.10
2018-05-06T17:02:07.470Z,3.53
2018-05-06T17:04:34.963Z,5.33
2018-05-06T17:07:03.315Z,4.63
2018-05-06T17:09:30.820Z,5.10
2018-05-06T17:11:58.318Z,6.33
2018-05-06T17:14:25.850Z,6.03
2018-05-06T17:16:53.338Z,3.07
2018-05-06T17:19:20.842Z,3.87
2018-05-06T17:21:48.363Z,3.70
2018-05-06T17:24:15.863Z,2.97
2018-05-06T17:26:43.370Z,3.33
2018-05-06T17:29:10.887Z,3.33
2018-05-06T17:31:38.396Z,2.83
2018-05-06T17:34:05.896Z,4.50
2018-05-06T17:36:33.450Z,6.50
2018-05-06T17:39:00.972Z,7.80
2018-05-06T17:41:28.470Z,8.27
2018-05-06T17:43:56.006Z,6.77
2018-05-06T17:46:24.272Z,7.43
2018-05-06T17:48:51.766Z,5.07
2018-05-06T17:51:19.277Z,4.57
2018-05-06T17:53:46.785Z,4.73
2018-05-06T17:56:14.313Z,3.90
2018-05-06T17:58:41.849Z,3.30
2018-05-06T18:01:09.354Z,4.23
2018-05-06T18:03:37.610Z,4.00
2018-05-06T18:06:05.136Z,3.57
2018-05-06T18:08:32.621Z,3.60
2018-05-06T18:11:00.130Z,11.63
2018-05-06T18:13:27.674Z,19.07
2018-05-06T18:15:55.208Z,8.13
2018-05-06T18:18:23.478Z,7.67
2018-05-06T18:20:51.785Z,8.30
2018-05-06T18:23:19.274Z,6.53
2018-05-06T18:25:46.769Z,5.97
2018-05-06T18:28:14.296Z,6.60
2018-05-06T18:30:41.791Z,5.83
2018-05-06T18:33:09.278Z,5.43
2018-05-06T18:35:36.797Z,5.73
2018-05-06T18:38:04.295Z,3.93
2018-05-06T18:40:31.790Z,5.60
2018-05-06T18:43:00.070Z,4.63
2018-05-06T18:45:27.567Z,4.53
2018-05-06T18:47:55.833Z,4.43
2018-05-06T18:50:23.394Z,4.50
2018-05-06T18:52:50.894Z,3.83
2018-05-06T18:55:18.436Z,4.97
2018-05-06T18:57:45.960Z,4.03
2018-05-06T19:00:13.469Z,7.10
2018-05-06T19:02:41.037Z,6.80
2018-05-06T19:05:09.291Z,4.97
2018-05-06T19:07:37.552Z,6.53
2018-05-06T19:10:05.850Z,4.93
2018-05-06T19:12:33.408Z,4.70
2018-05-06T19:15:00.906Z,5.87
2018-05-06T19:17:28.494Z,5.80
2018-05-06T19:19:56.019Z,5.13
2018-05-06T19:22:23.526Z,4.33
2018-05-06T19:24:51.782Z,5.03
2018-05-06T19:27:19.297Z,3.67
2018-05-06T19:29:46.888Z,5.17
2018-05-06T19:32:15.090Z,5.00
2018-05-06T19:34:43.409Z,3.10
2018-05-06T19:37:10.923Z,3.63
2018-05-06T19:39:38.474Z,4.23
2018-05-06T19:42:06.167Z,4.77
2018-05-06T19:44:33.502Z,4.10
2018-05-06T19:47:00.998Z,3.77
2018-05-06T19:49:28.505Z,2.93
2018-05-06T19:51:56.010Z,2.70
2018-05-06T19:54:23.510Z,3.63
2018-05-06T19:56:51.037Z,3.60
2018-05-06T19:59:18.546Z,4.30
2018-05-06T20:01:46.078Z,4.47
2018-05-06T20:04:13.593Z,4.33
2018-05-06T20:06:41.874Z,3.20
2018-05-06T20:09:10.175Z,3.33
2018-05-06T20:11:37.704Z,3.63
2018-05-06T20:14:05.978Z,3.17
2018-05-06T20:16:34.750Z,3.20
2018-05-06T20:19:02.278Z,3.70
2018-05-06T20:21:32.866Z,3.40
2018-05-06T20:24:00.358Z,3.53
2018-05-06T20:26:27.880Z,4.17
2018-05-06T20:28:55.421Z,4.67
2018-05-06T20:31:23.700Z,4.40
2018-05-06T20:33:52.008Z,4.87
2018-05-06T20:36:19.532Z,5.27
2018-05-06T20:38:47.092Z,5.50
2018-05-06T20:41:14.619Z,4.33
2018-05-06T20:43:42.131Z,7.07
2018-05-06T20:46:09.632Z,7.43
2018-05-06T20:48:37.144Z,5.00
2018-05-06T20:51:04.658Z,5.33
2018-05-06T20:53:32.162Z,5.93
2018-05-06T20:56:00.453Z,5.87
2018-05-06T20:58:32.040Z,4.23
2018-05-06T21:00:59.550Z,4.10
2018-05-06T21:03:27.822Z,4.73
2018-05-06T21:05:56.117Z,3.97
2018-05-06T21:08:23.641Z,4.97
2018-05-06T21:10:51.146Z,5.00
2018-05-06T21:13:18.653Z,4.30
2018-05-06T21:15:46.180Z,4.50
2018-05-06T21:18:13.710Z,5.00
2018-05-06T21:20:41.218Z,4.03
2018-05-06T21:23:08.736Z,5.23
2018-05-06T21:25:36.236Z,4.37
2018-05-06T21:28:03.769Z,4.43
2018-05-06T21:30:31.272Z,5.77
2018-05-06T21:32:58.882Z,5.33
2018-05-06T21:35:26.327Z,5.13
2018-05-06T21:37:53.840Z,4.00
2018-05-06T21:40:21.342Z,5.03
2018-05-06T21:42:48.839Z,4.10
2018-05-06T21:45:16.353Z,5.13
2018-05-06T21:47:43.845Z,4.57
2018-05-06T21:50:11.419Z,4.13
2018-05-06T21:52:38.917Z,4.53
2018-05-06T21:55:07.186Z,6.17
2018-05-06T21:57:35.498Z,4.20
2018-05-06T22:00:03.002Z,6.33
2018-05-06T22:02:30.512Z,5.70
2018-05-06T22:04:58.006Z,7.23
2018-05-06T22:07:25.609Z,4.53
2018-05-06T22:09:53.107Z,5.53
2018-05-06T22:12:20.630Z,9.20
2018-05-06T22:14:48.894Z,4.60
2018-05-06T22:17:17.311Z,5.13
2018-05-06T22:19:44.809Z,4.97
2018-05-06T22:22:12.313Z,5.97
2018-05-06T22:24:39.807Z,5.03
2018-05-06T22:27:07.314Z,6.03
2018-05-06T22:29:35.633Z,5.87
2018-05-06T22:32:03.126Z,6.77
2018-05-06T22:34:30.634Z,5.17
2018-05-06T22:36:58.165Z,4.67
2018-05-06T22:39:26.449Z,5.53
2018-05-06T22:41:54.716Z,5.73
2018-05-06T22:44:22.268Z,5.73
2018-05-06T22:46:50.541Z,6.30
2018-05-06T22:49:18.052Z,5.63
2018-05-06T22:51:45.627Z,6.40
2018-05-06T22:54:13.874Z,5.63
2018-05-06T22:56:41.390Z,7.17
2018-05-06T22:59:08.913Z,5.07
2018-05-06T23:01:36.404Z,6.53
2018-05-06T23:04:03.979Z,5.73
2018-05-06T23:06:32.348Z,6.27
2018-05-06T23:08:59.937Z,7.00
2018-05-06T23:11:27.526Z,7.20
2018-05-06T23:13:55.128Z,7.20
2018-05-06T23:16:23.536Z,4.73
2018-05-06T23:18:51.058Z,5.77
2018-05-06T23:21:19.507Z,9.57
2018-05-06T23:23:47.088Z,6.27
2018-05-06T23:26:14.681Z,6.83
2018-05-06T23:28:43.036Z,7.17
2018-05-06T23:31:10.610Z,7.27
2018-05-06T23:33:38.962Z,6.07
2018-05-06T23:36:06.555Z,5.40
2018-05-06T23:38:34.894Z,5.93
2018-05-06T23:41:02.470Z,5.27
2018-05-06T23:43:30.084Z,5.73
2018-05-06T23:45:57.687Z,5.50
2018-05-06T23:48:25.265Z,7.43
2018-05-06T23:50:52.874Z,4.50
2018-05-06T23:53:20.464Z,5.23
2018-05-06T23:55:48.038Z,5.90
2018-05-06T23:58:15.649Z,5.67
